sensor_id;sensor_type;location;lat;lon;timestamp;temperature;humidity
75931;DHT22;64609;47.052;15.462;2024-03-02T00:00:19;12.80;71.50
75931;DHT22;64609;47.052;15.462;2024-03-02T00:02:48;12.80;71.50
75931;DHT22;64609;47.052;15.462;2024-03-02T00:05:18;12.80;71.50
75931;DHT22;64609;47.052;15.462;2024-03-02T00:07:46;12.70;71.50
75931;DHT22;64609;47.052;15.462;2024-03-02T00:10:16;12.70;71.60
75931;DHT22;64609;47.052;15.462;2024-03-02T00:12:47;12.70;71.70
75931;DHT22;64609;47.052;15.462;2024-03-02T00:15:41;12.70;71.60
75931;DHT22;64609;47.052;15.462;2024-03-02T00:18:11;12.70;71.70
75931;DHT22;64609;47.052;15.462;2024-03-02T00:20:38;12.70;71.80
75931;DHT22;64609;47.052;15.462;2024-03-02T00:23:06;12.70;71.80
75931;DHT22;64609;47.052;15.462;2024-03-02T00:25:42;12.80;71.80
75931;DHT22;64609;47.052;15.462;2024-03-02T00:28:20;12.80;71.80
75931;DHT22;64609;47.052;15.462;2024-03-02T00:33:40;12.70;71.80
75931;DHT22;64609;47.052;15.462;2024-03-02T00:36:07;12.60;72.00
75931;DHT22;64609;47.052;15.462;2024-03-02T00:38:34;12.70;72.10
75931;DHT22;64609;47.052;15.462;2024-03-02T00:41:05;12.70;71.90
75931;DHT22;64609;47.052;15.462;2024-03-02T00:43:45;12.80;71.80
75931;DHT22;64609;47.052;15.462;2024-03-02T00:46:15;12.80;71.60
75931;DHT22;64609;47.052;15.462;2024-03-02T00:51:12;12.70;71.40
75931;DHT22;64609;47.052;15.462;2024-03-02T00:53:38;12.70;71.60
75931;DHT22;64609;47.052;15.462;2024-03-02T00:56:04;12.70;71.80
75931;DHT22;64609;47.052;15.462;2024-03-02T00:58:34;12.60;71.80
75931;DHT22;64609;47.052;15.462;2024-03-02T01:00:59;12.60;72.00
75931;DHT22;64609;47.052;15.462;2024-03-02T01:03:25;12.60;72.20
75931;DHT22;64609;47.052;15.462;2024-03-02T01:05:51;12.60;72.20
75931;DHT22;64609;47.052;15.462;2024-03-02T01:08:17;12.60;72.10
75931;DHT22;64609;47.052;15.462;2024-03-02T01:10:42;12.70;72.20
75931;DHT22;64609;47.052;15.462;2024-03-02T01:13:08;12.60;72.10
75931;DHT22;64609;47.052;15.462;2024-03-02T01:15:34;12.60;72.00
75931;DHT22;64609;47.052;15.462;2024-03-02T01:18:00;12.60;71.90
75931;DHT22;64609;47.052;15.462;2024-03-02T01:20:26;12.60;71.80
75931;DHT22;64609;47.052;15.462;2024-03-02T01:22:52;12.60;71.80
75931;DHT22;64609;47.052;15.462;2024-03-02T01:25:18;12.60;71.80
75931;DHT22;64609;47.052;15.462;2024-03-02T01:27:44;12.60;71.90
75931;DHT22;64609;47.052;15.462;2024-03-02T01:30:10;12.60;71.90
75931;DHT22;64609;47.052;15.462;2024-03-02T01:32:38;12.70;71.70
75931;DHT22;64609;47.052;15.462;2024-03-02T01:35:04;12.70;71.40
75931;DHT22;64609;47.052;15.462;2024-03-02T01:37:30;12.70;71.40
75931;DHT22;64609;47.052;15.462;2024-03-02T01:39:56;12.70;71.60
75931;DHT22;64609;47.052;15.462;2024-03-02T01:42:21;12.60;71.40
75931;DHT22;64609;47.052;15.462;2024-03-02T01:44:47;12.50;71.60
75931;DHT22;64609;47.052;15.462;2024-03-02T01:47:13;12.50;71.70
75931;DHT22;64609;47.052;15.462;2024-03-02T01:49:39;12.60;71.70
75931;DHT22;64609;47.052;15.462;2024-03-02T01:52:07;12.60;71.60
75931;DHT22;64609;47.052;15.462;2024-03-02T01:54:32;12.60;71.30
75931;DHT22;64609;47.052;15.462;2024-03-02T01:56:59;12.50;71.30
75931;DHT22;64609;47.052;15.462;2024-03-02T01:59:25;12.50;71.40
75931;DHT22;64609;47.052;15.462;2024-03-02T02:01:50;12.50;71.50
75931;DHT22;64609;47.052;15.462;2024-03-02T02:04:16;12.60;71.60
75931;DHT22;64609;47.052;15.462;2024-03-02T02:06:44;12.60;71.60
75931;DHT22;64609;47.052;15.462;2024-03-02T02:09:09;12.60;71.30
75931;DHT22;64609;47.052;15.462;2024-03-02T02:11:35;12.60;70.80
75931;DHT22;64609;47.052;15.462;2024-03-02T02:14:01;12.60;71.00
75931;DHT22;64609;47.052;15.462;2024-03-02T02:16:26;12.60;70.80
75931;DHT22;64609;47.052;15.462;2024-03-02T02:18:52;12.60;70.80
75931;DHT22;64609;47.052;15.462;2024-03-02T02:21:21;12.60;70.70
75931;DHT22;64609;47.052;15.462;2024-03-02T02:23:47;12.60;70.80
75931;DHT22;64609;47.052;15.462;2024-03-02T02:26:14;12.60;70.80
75931;DHT22;64609;47.052;15.462;2024-03-02T02:28:39;12.60;70.40
75931;DHT22;64609;47.052;15.462;2024-03-02T02:31:15;12.50;70.30
75931;DHT22;64609;47.052;15.462;2024-03-02T02:33:41;12.50;70.50
75931;DHT22;64609;47.052;15.462;2024-03-02T02:36:07;12.60;70.60
75931;DHT22;64609;47.052;15.462;2024-03-02T02:38:33;12.60;70.60
75931;DHT22;64609;47.052;15.462;2024-03-02T02:41:00;12.60;70.30
75931;DHT22;64609;47.052;15.462;2024-03-02T02:43:26;12.70;70.20
75931;DHT22;64609;47.052;15.462;2024-03-02T02:45:51;12.70;70.00
75931;DHT22;64609;47.052;15.462;2024-03-02T02:48:17;12.70;69.60
75931;DHT22;64609;47.052;15.462;2024-03-02T02:50:43;12.70;69.40
75931;DHT22;64609;47.052;15.462;2024-03-02T02:53:08;12.70;69.40
75931;DHT22;64609;47.052;15.462;2024-03-02T02:55:35;12.70;69.40
75931;DHT22;64609;47.052;15.462;2024-03-02T02:58:09;12.60;69.60
75931;DHT22;64609;47.052;15.462;2024-03-02T03:00:34;12.60;69.70
75931;DHT22;64609;47.052;15.462;2024-03-02T03:03:00;12.60;69.70
75931;DHT22;64609;47.052;15.462;2024-03-02T03:05:25;12.60;69.70
75931;DHT22;64609;47.052;15.462;2024-03-02T03:07:51;12.60;69.60
75931;DHT22;64609;47.052;15.462;2024-03-02T03:10:17;12.60;69.70
75931;DHT22;64609;47.052;15.462;2024-03-02T03:12:43;12.60;69.50
75931;DHT22;64609;47.052;15.462;2024-03-02T03:15:09;12.60;69.50
75931;DHT22;64609;47.052;15.462;2024-03-02T03:17:36;12.60;69.40
75931;DHT22;64609;47.052;15.462;2024-03-02T03:20:03;12.70;69.40
75931;DHT22;64609;47.052;15.462;2024-03-02T03:22:30;12.60;69.50
75931;DHT22;64609;47.052;15.462;2024-03-02T03:24:56;12.60;69.30
75931;DHT22;64609;47.052;15.462;2024-03-02T03:27:22;12.60;69.50
75931;DHT22;64609;47.052;15.462;2024-03-02T03:29:47;12.60;69.70
75931;DHT22;64609;47.052;15.462;2024-03-02T03:32:13;12.60;69.70
75931;DHT22;64609;47.052;15.462;2024-03-02T03:34:39;12.60;69.60
75931;DHT22;64609;47.052;15.462;2024-03-02T03:37:05;12.50;69.70
75931;DHT22;64609;47.052;15.462;2024-03-02T03:39:31;12.50;69.70
75931;DHT22;64609;47.052;15.462;2024-03-02T03:41:57;12.50;69.80
75931;DHT22;64609;47.052;15.462;2024-03-02T03:44:22;12.40;69.70
75931;DHT22;64609;47.052;15.462;2024-03-02T03:46:48;12.50;70.00
75931;DHT22;64609;47.052;15.462;2024-03-02T03:49:13;12.50;70.10
75931;DHT22;64609;47.052;15.462;2024-03-02T03:51:39;12.50;69.90
75931;DHT22;64609;47.052;15.462;2024-03-02T03:54:05;12.40;70.00
75931;DHT22;64609;47.052;15.462;2024-03-02T03:56:30;12.40;70.30
75931;DHT22;64609;47.052;15.462;2024-03-02T03:58:56;12.40;70.40
75931;DHT22;64609;47.052;15.462;2024-03-02T04:01:21;12.50;70.50
75931;DHT22;64609;47.052;15.462;2024-03-02T04:03:48;12.50;70.30
75931;DHT22;64609;47.052;15.462;2024-03-02T04:06:14;12.50;70.10
75931;DHT22;64609;47.052;15.462;2024-03-02T04:08:41;12.50;69.80
75931;DHT22;64609;47.052;15.462;2024-03-02T04:11:07;12.60;69.70
75931;DHT22;64609;47.052;15.462;2024-03-02T04:13:33;12.50;69.70
75931;DHT22;64609;47.052;15.462;2024-03-02T04:15:59;12.50;70.60
75931;DHT22;64609;47.052;15.462;2024-03-02T04:18:24;12.50;69.70
75931;DHT22;64609;47.052;15.462;2024-03-02T04:20:50;12.50;69.60
75931;DHT22;64609;47.052;15.462;2024-03-02T04:23:15;12.50;69.50
75931;DHT22;64609;47.052;15.462;2024-03-02T04:25:41;12.50;69.40
75931;DHT22;64609;47.052;15.462;2024-03-02T04:28:07;12.50;69.40
75931;DHT22;64609;47.052;15.462;2024-03-02T04:30:32;12.50;69.40
75931;DHT22;64609;47.052;15.462;2024-03-02T04:32:58;12.50;69.30
75931;DHT22;64609;47.052;15.462;2024-03-02T04:35:24;12.40;69.50
75931;DHT22;64609;47.052;15.462;2024-03-02T04:37:50;12.30;69.70
75931;DHT22;64609;47.052;15.462;2024-03-02T04:40:16;12.30;70.60
75931;DHT22;64609;47.052;15.462;2024-03-02T04:42:42;12.30;69.50
75931;DHT22;64609;47.052;15.462;2024-03-02T04:45:08;12.30;69.60
75931;DHT22;64609;47.052;15.462;2024-03-02T04:47:34;12.30;69.50
75931;DHT22;64609;47.052;15.462;2024-03-02T04:49:59;12.30;69.40
75931;DHT22;64609;47.052;15.462;2024-03-02T04:52:25;12.40;69.20
75931;DHT22;64609;47.052;15.462;2024-03-02T04:54:51;12.30;69.00
75931;DHT22;64609;47.052;15.462;2024-03-02T04:57:35;12.40;69.10
75931;DHT22;64609;47.052;15.462;2024-03-02T05:00:01;12.40;68.90
75931;DHT22;64609;47.052;15.462;2024-03-02T05:02:26;12.40;68.80
75931;DHT22;64609;47.052;15.462;2024-03-02T05:04:52;12.40;68.70
75931;DHT22;64609;47.052;15.462;2024-03-02T05:07:18;12.50;68.30
75931;DHT22;64609;47.052;15.462;2024-03-02T05:09:43;12.40;68.10
75931;DHT22;64609;47.052;15.462;2024-03-02T05:12:10;12.40;68.30
75931;DHT22;64609;47.052;15.462;2024-03-02T05:14:54;12.40;68.50
75931;DHT22;64609;47.052;15.462;2024-03-02T05:17:19;12.40;68.80
75931;DHT22;64609;47.052;15.462;2024-03-02T05:19:45;12.40;68.80
75931;DHT22;64609;47.052;15.462;2024-03-02T05:22:10;12.30;68.80
75931;DHT22;64609;47.052;15.462;2024-03-02T05:24:36;12.30;68.90
75931;DHT22;64609;47.052;15.462;2024-03-02T05:27:02;12.40;68.70
75931;DHT22;64609;47.052;15.462;2024-03-02T05:29:28;12.50;68.50
75931;DHT22;64609;47.052;15.462;2024-03-02T05:31:53;12.40;68.40
75931;DHT22;64609;47.052;15.462;2024-03-02T05:34:19;12.40;68.30
75931;DHT22;64609;47.052;15.462;2024-03-02T05:36:44;12.40;68.30
75931;DHT22;64609;47.052;15.462;2024-03-02T05:39:10;12.40;68.30
75931;DHT22;64609;47.052;15.462;2024-03-02T05:41:36;12.40;68.40
75931;DHT22;64609;47.052;15.462;2024-03-02T05:44:01;12.40;68.30
75931;DHT22;64609;47.052;15.462;2024-03-02T05:46:27;12.30;68.10
75931;DHT22;64609;47.052;15.462;2024-03-02T05:48:53;12.30;68.30
75931;DHT22;64609;47.052;15.462;2024-03-02T05:51:19;12.30;68.60
75931;DHT22;64609;47.052;15.462;2024-03-02T05:53:44;12.30;68.50
75931;DHT22;64609;47.052;15.462;2024-03-02T05:56:10;12.30;68.20
75931;DHT22;64609;47.052;15.462;2024-03-02T05:58:37;12.30;68.30
75931;DHT22;64609;47.052;15.462;2024-03-02T06:01:26;12.30;68.40
75931;DHT22;64609;47.052;15.462;2024-03-02T06:03:55;12.30;68.30
75931;DHT22;64609;47.052;15.462;2024-03-02T06:06:22;12.30;68.30
75931;DHT22;64609;47.052;15.462;2024-03-02T06:08:48;12.30;68.50
75931;DHT22;64609;47.052;15.462;2024-03-02T06:11:13;12.30;68.60
75931;DHT22;64609;47.052;15.462;2024-03-02T06:13:39;12.30;68.40
75931;DHT22;64609;47.052;15.462;2024-03-02T06:16:05;12.30;68.30
75931;DHT22;64609;47.052;15.462;2024-03-02T06:18:30;12.30;68.30
75931;DHT22;64609;47.052;15.462;2024-03-02T06:20:56;12.40;68.40
75931;DHT22;64609;47.052;15.462;2024-03-02T06:23:22;12.40;68.30
75931;DHT22;64609;47.052;15.462;2024-03-02T06:25:47;12.40;68.30
75931;DHT22;64609;47.052;15.462;2024-03-02T06:28:13;12.30;68.20
75931;DHT22;64609;47.052;15.462;2024-03-02T06:30:41;12.30;68.30
75931;DHT22;64609;47.052;15.462;2024-03-02T06:33:07;12.30;68.50
75931;DHT22;64609;47.052;15.462;2024-03-02T06:35:33;12.40;68.50
75931;DHT22;64609;47.052;15.462;2024-03-02T06:37:58;12.40;68.40
75931;DHT22;64609;47.052;15.462;2024-03-02T06:40:24;12.40;68.30
75931;DHT22;64609;47.052;15.462;2024-03-02T06:42:50;12.50;68.20
75931;DHT22;64609;47.052;15.462;2024-03-02T06:45:15;12.50;67.90
75931;DHT22;64609;47.052;15.462;2024-03-02T06:47:41;12.50;68.10
75931;DHT22;64609;47.052;15.462;2024-03-02T06:50:06;12.50;68.00
75931;DHT22;64609;47.052;15.462;2024-03-02T06:52:32;12.60;67.80
75931;DHT22;64609;47.052;15.462;2024-03-02T06:54:58;12.60;67.70
75931;DHT22;64609;47.052;15.462;2024-03-02T06:57:23;12.60;67.70
75931;DHT22;64609;47.052;15.462;2024-03-02T06:59:50;12.70;67.70
75931;DHT22;64609;47.052;15.462;2024-03-02T07:02:16;12.70;67.50
75931;DHT22;64609;47.052;15.462;2024-03-02T07:04:42;12.70;67.50
75931;DHT22;64609;47.052;15.462;2024-03-02T07:07:08;12.70;67.50
75931;DHT22;64609;47.052;15.462;2024-03-02T07:09:33;12.80;67.10
75931;DHT22;64609;47.052;15.462;2024-03-02T07:11:59;12.80;67.00
75931;DHT22;64609;47.052;15.462;2024-03-02T07:14:25;12.80;67.10
75931;DHT22;64609;47.052;15.462;2024-03-02T07:17:10;12.90;66.90
75931;DHT22;64609;47.052;15.462;2024-03-02T07:19:37;12.90;67.00
75931;DHT22;64609;47.052;15.462;2024-03-02T07:22:06;13.00;67.20
75931;DHT22;64609;47.052;15.462;2024-03-02T07:24:39;13.10;67.10
75931;DHT22;64609;47.052;15.462;2024-03-02T07:27:06;13.20;66.90
75931;DHT22;64609;47.052;15.462;2024-03-02T07:29:31;13.20;66.40
75931;DHT22;64609;47.052;15.462;2024-03-02T07:31:57;13.30;66.10
75931;DHT22;64609;47.052;15.462;2024-03-02T07:34:22;13.30;66.20
75931;DHT22;64609;47.052;15.462;2024-03-02T07:36:48;13.50;65.90
75931;DHT22;64609;47.052;15.462;2024-03-02T07:39:14;13.60;65.50
75931;DHT22;64609;47.052;15.462;2024-03-02T07:41:39;13.70;65.10
75931;DHT22;64609;47.052;15.462;2024-03-02T07:44:05;13.80;64.70
75931;DHT22;64609;47.052;15.462;2024-03-02T07:46:31;13.90;64.20
75931;DHT22;64609;47.052;15.462;2024-03-02T07:48:56;14.10;64.20
75931;DHT22;64609;47.052;15.462;2024-03-02T07:51:22;14.20;63.80
75931;DHT22;64609;47.052;15.462;2024-03-02T07:53:47;14.40;63.70
75931;DHT22;64609;47.052;15.462;2024-03-02T07:56:13;14.50;63.00
75931;DHT22;64609;47.052;15.462;2024-03-02T07:58:39;14.60;62.30
75931;DHT22;64609;47.052;15.462;2024-03-02T08:01:04;14.60;61.90
75931;DHT22;64609;47.052;15.462;2024-03-02T08:03:30;14.60;61.70
75931;DHT22;64609;47.052;15.462;2024-03-02T08:05:57;14.60;61.60
75931;DHT22;64609;47.052;15.462;2024-03-02T08:08:23;14.70;61.20
75931;DHT22;64609;47.052;15.462;2024-03-02T08:10:48;14.70;61.30
75931;DHT22;64609;47.052;15.462;2024-03-02T08:13:14;14.80;61.40
75931;DHT22;64609;47.052;15.462;2024-03-02T08:15:40;14.90;61.00
75931;DHT22;64609;47.052;15.462;2024-03-02T08:18:06;14.90;61.30
75931;DHT22;64609;47.052;15.462;2024-03-02T08:20:31;15.00;61.20
75931;DHT22;64609;47.052;15.462;2024-03-02T08:22:57;15.00;59.70
75931;DHT22;64609;47.052;15.462;2024-03-02T08:25:23;15.00;60.20
75931;DHT22;64609;47.052;15.462;2024-03-02T08:27:48;15.10;59.90
75931;DHT22;64609;47.052;15.462;2024-03-02T08:30:14;15.20;60.00
75931;DHT22;64609;47.052;15.462;2024-03-02T08:32:40;15.20;59.70
75931;DHT22;64609;47.052;15.462;2024-03-02T08:35:06;15.30;59.20
75931;DHT22;64609;47.052;15.462;2024-03-02T08:37:32;15.30;59.30
75931;DHT22;64609;47.052;15.462;2024-03-02T08:39:57;15.50;59.10
75931;DHT22;64609;47.052;15.462;2024-03-02T08:42:23;15.60;58.90
75931;DHT22;64609;47.052;15.462;2024-03-02T08:44:49;15.60;58.60
75931;DHT22;64609;47.052;15.462;2024-03-02T08:47:15;15.60;58.80
75931;DHT22;64609;47.052;15.462;2024-03-02T08:49:41;15.80;58.10
75931;DHT22;64609;47.052;15.462;2024-03-02T08:52:06;16.00;58.10
75931;DHT22;64609;47.052;15.462;2024-03-02T08:54:32;16.10;57.20
75931;DHT22;64609;47.052;15.462;2024-03-02T08:56:59;16.10;56.20
75931;DHT22;64609;47.052;15.462;2024-03-02T08:59:25;16.10;56.60
75931;DHT22;64609;47.052;15.462;2024-03-02T09:01:53;16.30;57.10
75931;DHT22;64609;47.052;15.462;2024-03-02T09:04:18;16.50;56.60
75931;DHT22;64609;47.052;15.462;2024-03-02T09:06:44;16.60;55.60
75931;DHT22;64609;47.052;15.462;2024-03-02T09:09:10;16.60;55.60
75931;DHT22;64609;47.052;15.462;2024-03-02T09:11:35;16.60;55.40
75931;DHT22;64609;47.052;15.462;2024-03-02T09:14:01;16.60;55.50
75931;DHT22;64609;47.052;15.462;2024-03-02T09:16:27;16.70;55.60
75931;DHT22;64609;47.052;15.462;2024-03-02T09:18:56;16.70;54.70
75931;DHT22;64609;47.052;15.462;2024-03-02T09:21:22;16.80;54.80
75931;DHT22;64609;47.052;15.462;2024-03-02T09:23:48;16.70;54.40
75931;DHT22;64609;47.052;15.462;2024-03-02T09:26:14;16.70;54.90
75931;DHT22;64609;47.052;15.462;2024-03-02T09:28:43;16.70;54.00
75931;DHT22;64609;47.052;15.462;2024-03-02T09:31:09;16.40;55.30
75931;DHT22;64609;47.052;15.462;2024-03-02T09:33:34;16.40;56.00
75931;DHT22;64609;47.052;15.462;2024-03-02T09:36:00;16.60;55.80
75931;DHT22;64609;47.052;15.462;2024-03-02T09:38:26;16.50;55.90
75931;DHT22;64609;47.052;15.462;2024-03-02T09:40:51;16.60;56.10
75931;DHT22;64609;47.052;15.462;2024-03-02T09:43:17;16.60;55.40
75931;DHT22;64609;47.052;15.462;2024-03-02T09:45:43;16.60;56.20
75931;DHT22;64609;47.052;15.462;2024-03-02T09:48:09;16.60;55.30
75931;DHT22;64609;47.052;15.462;2024-03-02T09:50:34;16.70;55.80
75931;DHT22;64609;47.052;15.462;2024-03-02T09:53:00;16.80;55.30
75931;DHT22;64609;47.052;15.462;2024-03-02T09:55:27;16.80;54.60
75931;DHT22;64609;47.052;15.462;2024-03-02T09:57:53;16.70;54.60
75931;DHT22;64609;47.052;15.462;2024-03-02T10:00:19;16.80;55.10
75931;DHT22;64609;47.052;15.462;2024-03-02T10:02:44;16.90;54.90
75931;DHT22;64609;47.052;15.462;2024-03-02T10:05:12;17.00;54.30
75931;DHT22;64609;47.052;15.462;2024-03-02T10:07:38;17.10;54.00
75931;DHT22;64609;47.052;15.462;2024-03-02T10:10:14;17.20;53.90
75931;DHT22;64609;47.052;15.462;2024-03-02T10:12:40;17.30;53.00
75931;DHT22;64609;47.052;15.462;2024-03-02T10:15:06;17.10;53.40
75931;DHT22;64609;47.052;15.462;2024-03-02T10:17:32;17.20;54.10
75931;DHT22;64609;47.052;15.462;2024-03-02T10:19:58;17.50;54.10
75931;DHT22;64609;47.052;15.462;2024-03-02T10:22:24;17.80;52.80
75931;DHT22;64609;47.052;15.462;2024-03-02T10:24:49;17.90;51.70
75931;DHT22;64609;47.052;15.462;2024-03-02T10:27:18;17.80;51.20
75931;DHT22;64609;47.052;15.462;2024-03-02T10:29:48;17.90;51.50
75931;DHT22;64609;47.052;15.462;2024-03-02T10:32:15;17.90;51.40
75931;DHT22;64609;47.052;15.462;2024-03-02T10:34:42;18.00;51.30
75931;DHT22;64609;47.052;15.462;2024-03-02T10:37:08;18.00;51.00
75931;DHT22;64609;47.052;15.462;2024-03-02T10:39:37;18.00;51.80
75931;DHT22;64609;47.052;15.462;2024-03-02T10:42:06;18.10;51.40
75931;DHT22;64609;47.052;15.462;2024-03-02T10:44:32;18.40;50.50
75931;DHT22;64609;47.052;15.462;2024-03-02T10:47:01;18.70;50.30
75931;DHT22;64609;47.052;15.462;2024-03-02T10:49:29;18.90;48.60
75931;DHT22;64609;47.052;15.462;2024-03-02T10:51:55;18.90;48.40
75931;DHT22;64609;47.052;15.462;2024-03-02T10:54:21;19.00;48.90
75931;DHT22;64609;47.052;15.462;2024-03-02T10:56:53;19.20;48.80
75931;DHT22;64609;47.052;15.462;2024-03-02T10:59:36;19.40;47.20
75931;DHT22;64609;47.052;15.462;2024-03-02T11:02:05;19.40;47.60
75931;DHT22;64609;47.052;15.462;2024-03-02T11:04:34;19.60;47.70
75931;DHT22;64609;47.052;15.462;2024-03-02T11:07:04;19.80;47.10
75931;DHT22;64609;47.052;15.462;2024-03-02T11:09:33;19.80;46.20
75931;DHT22;64609;47.052;15.462;2024-03-02T11:14:55;19.70;45.70
75931;DHT22;64609;47.052;15.462;2024-03-02T11:17:21;19.70;46.00
75931;DHT22;64609;47.052;15.462;2024-03-02T11:19:48;19.90;46.40
75931;DHT22;64609;47.052;15.462;2024-03-02T11:22:15;19.80;45.60
75931;DHT22;64609;47.052;15.462;2024-03-02T11:24:48;19.60;46.10
75931;DHT22;64609;47.052;15.462;2024-03-02T11:27:14;19.70;46.10
75931;DHT22;64609;47.052;15.462;2024-03-02T11:32:22;20.00;46.20
75931;DHT22;64609;47.052;15.462;2024-03-02T11:34:49;20.20;46.00
75931;DHT22;64609;47.052;15.462;2024-03-02T11:37:17;20.30;45.20
75931;DHT22;64609;47.052;15.462;2024-03-02T11:39:48;20.30;45.10
75931;DHT22;64609;47.052;15.462;2024-03-02T11:42:15;20.30;44.80
75931;DHT22;64609;47.052;15.462;2024-03-02T11:44:47;20.30;45.00
75931;DHT22;64609;47.052;15.462;2024-03-02T11:47:17;20.30;45.00
75931;DHT22;64609;47.052;15.462;2024-03-02T11:49:48;20.40;44.50
75931;DHT22;64609;47.052;15.462;2024-03-02T11:52:15;20.20;44.40
75931;DHT22;64609;47.052;15.462;2024-03-02T11:54:46;20.20;44.30
75931;DHT22;64609;47.052;15.462;2024-03-02T11:57:16;20.40;44.50
75931;DHT22;64609;47.052;15.462;2024-03-02T11:59:43;20.40;43.70
75931;DHT22;64609;47.052;15.462;2024-03-02T12:02:18;20.30;43.30
75931;DHT22;64609;47.052;15.462;2024-03-02T12:04:44;20.10;43.40
75931;DHT22;64609;47.052;15.462;2024-03-02T12:07:11;20.20;44.20
75931;DHT22;64609;47.052;15.462;2024-03-02T12:09:38;20.40;43.60
75931;DHT22;64609;47.052;15.462;2024-03-02T12:12:08;20.50;43.00
75931;DHT22;64609;47.052;15.462;2024-03-02T12:14:36;20.40;42.90
75931;DHT22;64609;47.052;15.462;2024-03-02T12:17:02;20.40;42.80
75931;DHT22;64609;47.052;15.462;2024-03-02T12:19:29;20.50;43.00
75931;DHT22;64609;47.052;15.462;2024-03-02T12:21:56;20.60;42.20
75931;DHT22;64609;47.052;15.462;2024-03-02T12:24:21;20.60;42.20
75931;DHT22;64609;47.052;15.462;2024-03-02T12:26:51;20.60;42.50
75931;DHT22;64609;47.052;15.462;2024-03-02T12:29:19;20.60;42.50
75931;DHT22;64609;47.052;15.462;2024-03-02T12:31:45;20.30;42.50
75931;DHT22;64609;47.052;15.462;2024-03-02T12:34:13;20.10;43.70
75931;DHT22;64609;47.052;15.462;2024-03-02T12:36:39;19.90;44.60
75931;DHT22;64609;47.052;15.462;2024-03-02T12:39:07;19.60;44.30
75931;DHT22;64609;47.052;15.462;2024-03-02T12:41:36;19.60;44.80
75931;DHT22;64609;47.052;15.462;2024-03-02T12:44:03;19.80;44.60
75931;DHT22;64609;47.052;15.462;2024-03-02T12:46:29;19.90;44.00
75931;DHT22;64609;47.052;15.462;2024-03-02T12:48:54;20.00;44.10
75931;DHT22;64609;47.052;15.462;2024-03-02T12:51:20;20.00;43.50
75931;DHT22;64609;47.052;15.462;2024-03-02T12:53:52;20.00;43.80
75931;DHT22;64609;47.052;15.462;2024-03-02T12:56:18;19.90;43.70
75931;DHT22;64609;47.052;15.462;2024-03-02T12:58:44;20.00;44.10
75931;DHT22;64609;47.052;15.462;2024-03-02T13:01:10;20.10;43.10
75931;DHT22;64609;47.052;15.462;2024-03-02T13:03:39;20.20;43.00
75931;DHT22;64609;47.052;15.462;2024-03-02T13:06:08;20.20;43.00
75931;DHT22;64609;47.052;15.462;2024-03-02T13:08:34;20.00;43.30
75931;DHT22;64609;47.052;15.462;2024-03-02T13:11:00;19.90;43.80
75931;DHT22;64609;47.052;15.462;2024-03-02T13:13:26;19.70;44.30
75931;DHT22;64609;47.052;15.462;2024-03-02T13:15:55;19.60;44.10
75931;DHT22;64609;47.052;15.462;2024-03-02T13:18:22;19.40;44.40
75931;DHT22;64609;47.052;15.462;2024-03-02T13:20:47;19.30;45.00
75931;DHT22;64609;47.052;15.462;2024-03-02T13:23:13;19.30;45.50
75931;DHT22;64609;47.052;15.462;2024-03-02T13:25:39;19.40;45.60
75931;DHT22;64609;47.052;15.462;2024-03-02T13:28:05;19.30;45.10
75931;DHT22;64609;47.052;15.462;2024-03-02T13:30:32;19.20;45.50
75931;DHT22;64609;47.052;15.462;2024-03-02T13:32:58;19.20;45.90
75931;DHT22;64609;47.052;15.462;2024-03-02T13:35:23;19.10;45.70
75931;DHT22;64609;47.052;15.462;2024-03-02T13:37:49;19.10;46.50
75931;DHT22;64609;47.052;15.462;2024-03-02T13:40:16;19.10;46.30
75931;DHT22;64609;47.052;15.462;2024-03-02T13:42:46;19.10;46.70
75931;DHT22;64609;47.052;15.462;2024-03-02T13:45:12;19.10;46.80
75931;DHT22;64609;47.052;15.462;2024-03-02T13:47:38;19.00;46.50
75931;DHT22;64609;47.052;15.462;2024-03-02T13:50:04;18.80;47.10
75931;DHT22;64609;47.052;15.462;2024-03-02T13:52:30;18.80;47.70
75931;DHT22;64609;47.052;15.462;2024-03-02T13:54:56;18.70;47.90
75931;DHT22;64609;47.052;15.462;2024-03-02T13:57:22;18.70;48.10
75931;DHT22;64609;47.052;15.462;2024-03-02T13:59:47;18.60;47.50
75931;DHT22;64609;47.052;15.462;2024-03-02T14:02:13;18.60;48.20
75931;DHT22;64609;47.052;15.462;2024-03-02T14:04:40;18.70;48.30
75931;DHT22;64609;47.052;15.462;2024-03-02T14:07:06;18.60;47.60
75931;DHT22;64609;47.052;15.462;2024-03-02T14:09:36;18.60;47.90
75931;DHT22;64609;47.052;15.462;2024-03-02T14:12:02;18.40;48.30
75931;DHT22;64609;47.052;15.462;2024-03-02T14:14:28;18.40;48.70
75931;DHT22;64609;47.052;15.462;2024-03-02T14:16:57;18.40;48.90
75931;DHT22;64609;47.052;15.462;2024-03-02T14:19:29;18.30;48.60
75931;DHT22;64609;47.052;15.462;2024-03-02T14:21:54;18.40;49.00
75931;DHT22;64609;47.052;15.462;2024-03-02T14:24:21;18.30;48.90
75931;DHT22;64609;47.052;15.462;2024-03-02T14:26:53;18.30;49.20
75931;DHT22;64609;47.052;15.462;2024-03-02T14:29:19;18.20;49.60
75931;DHT22;64609;47.052;15.462;2024-03-02T14:31:45;18.10;49.70
75931;DHT22;64609;47.052;15.462;2024-03-02T14:34:14;18.00;49.90
75931;DHT22;64609;47.052;15.462;2024-03-02T14:36:40;18.00;49.90
75931;DHT22;64609;47.052;15.462;2024-03-02T14:39:06;17.90;50.00
75931;DHT22;64609;47.052;15.462;2024-03-02T14:41:35;17.90;50.30
75931;DHT22;64609;47.052;15.462;2024-03-02T14:44:01;17.70;50.20
75931;DHT22;64609;47.052;15.462;2024-03-02T14:46:27;17.60;50.60
75931;DHT22;64609;47.052;15.462;2024-03-02T14:48:53;17.60;50.90
75931;DHT22;64609;47.052;15.462;2024-03-02T14:51:18;17.60;50.80
75931;DHT22;64609;47.052;15.462;2024-03-02T14:53:44;17.60;51.20
75931;DHT22;64609;47.052;15.462;2024-03-02T14:56:10;17.50;50.90
75931;DHT22;64609;47.052;15.462;2024-03-02T14:58:35;17.50;51.30
75931;DHT22;64609;47.052;15.462;2024-03-02T15:01:03;17.50;51.60
75931;DHT22;64609;47.052;15.462;2024-03-02T15:03:29;17.40;51.40
75931;DHT22;64609;47.052;15.462;2024-03-02T15:05:55;17.40;51.40
75931;DHT22;64609;47.052;15.462;2024-03-02T15:08:22;17.30;51.40
75931;DHT22;64609;47.052;15.462;2024-03-02T15:10:47;17.30;51.20
75931;DHT22;64609;47.052;15.462;2024-03-02T15:13:13;17.30;52.00
75931;DHT22;64609;47.052;15.462;2024-03-02T15:15:39;17.30;50.80
75931;DHT22;64609;47.052;15.462;2024-03-02T15:18:05;17.30;51.20
75931;DHT22;64609;47.052;15.462;2024-03-02T15:20:30;17.20;51.40
75931;DHT22;64609;47.052;15.462;2024-03-02T15:22:56;17.30;51.50